Artas, South Dakota
Current Conditions -  °F | °C
As of 11:52 PM on Tuesday 25 Nov 2014 (Local Time) from KMBG Reporting Station
Overcast Overcast  
Wind Chill: 12°   Ceiling: 1000
Heat Index: 27°   Visibility: 10mi
Dew Point: 23°   Wind: 25mph
Humidity: 85%   Direction: 360°N
Pressure: 29.93"   Gusts: 40mph
Location:  45.7737°N, 99.5895°W
Report Text: KMBG 260552Z AUTO 36022G35KT 10SM OVC010 M03/M05 A2993 RMK AO2 PK WND 36035/0533 PRESRR SLP154 60000 T10281050 10028 21028 400281072 53058
Loading
Personal Weather Stations






























Interactive Weather Map New forecast layout! Learn more

10-Day Weather Forecast

Advertisements
Track Severe Weather on mobile